Helena — SCGL — position and weather

sailwx.info

Track history (hours):
 
Tides and Currents Weather Stations Pressure Air Temp Water Temp Dewpoint Dewpoint Depression Visibility Wind Speed Wind Dir Waves Ship Positions

Helena

Last reported at 2014-Oct-21 10:28 UTC. Time now 2014-Oct-25 05:40 UTC.
Position N 57°20' E 017°44'.

Length 169 m; draft 6.6 m.

Type: Cargo ship. MMSI: 265145000.

Date/timePositionNaut miles runAvg speedWind from/ knotsBaromVisibWave heightAir tempDewpointWater temp
2014-Oct-21 10:28N 57°20' E 017°44'1516.1
2014-Oct-21 09:33N 57°06' E 017°34'10915.1
2014-Oct-21 02:20N 55°40' E 015°32'1316.5
2014-Oct-21 01:34N 55°34' E 015°13'1716.5
2014-Oct-21 00:34N 55°26' E 014°48'1616.0
2014-Oct-20 23:34N 55°14' E 014°28'1616.2
2014-Oct-20 22:34N 55°02' E 014°10'6516.3
2014-Oct-20 18:33N 54°36' E 012°26'1615.9
2014-Oct-20 17:34N 54°24' E 012°07'1616.1
2014-Oct-20 16:33N 54°17' E 011°42'1816.3
2014-Oct-20 15:28N 54°08' E 011°17'13 0.4
2014-Oct-19 07:33N 54°16' E 011°33'1313.2
2014-Oct-19 06:33N 54°23' E 011°53'1212.3
2014-Oct-19 05:33N 54°29' E 012°11'1711.9
2014-Oct-19 04:08N 54°42' E 012°29'7012.2
2014-Oct-18 22:24N 55°14' E 014°18'2512.5
2014-Oct-18 20:25N 55°32' E 014°49'1213.2
2014-Oct-18 19:30N 55°38' E 015°07'1313.3
2014-Oct-18 18:33N 55°44' E 015°27'1413.6
2014-Oct-18 17:30N 55°51' E 015°49'1313.6
2014-Oct-18 16:33N 55°57' E 016°09'  
2014-Oct-14 12:30N 57°16' E 017°39'11914.2
2014-Oct-14 04:07N 55°40' E 015°33'1014.8
2014-Oct-14 03:25N 55°36' E 015°16'1415.3
2014-Oct-14 02:31N 55°29' E 014°54'1515.3
2014-Oct-14 01:31N 55°20' E 014°33'1516.1
2014-Oct-14 00:34N 55°07' E 014°18'7015.9
2014-Oct-13 20:11N 54°37' E 012°29'1015.4
2014-Oct-13 19:33N 54°30' E 012°17'1211.7
2014-Oct-13 18:33N 54°24' E 011°60'1414.2
2014-Oct-13 17:33N 54°16' E 011°40'10 9.8
2014-Oct-13 16:32N 54°11' E 011°25'1210.4
2014-Oct-13 15:25N 54°05' E 011°08'5 0.2
2014-Oct-12 07:33N 54°09' E 011°14'1413.4
2014-Oct-12 06:30N 54°17' E 011°33'1313.5
2014-Oct-12 05:34N 54°24' E 011°51'1212.2
2014-Oct-12 04:33N 54°28' E 012°11'1712.3
2014-Oct-12 03:09N 54°42' E 012°28'7212.9
2014-Oct-11 21:32N 55°14' E 014°20'1413.3
2014-Oct-11 20:32N 55°25' E 014°35'1313.1
2014-Oct-11 19:33N 55°31' E 014°55'1313.1
2014-Oct-11 18:34N 55°38' E 015°14'1313.2
2014-Oct-11 17:33N 55°45' E 015°34'2613.2
2014-Oct-11 15:33N 55°59' E 016°15'4613.6
2014-Oct-11 12:10N 56°38' E 016°58'2314.2
2014-Oct-11 10:33N 56°60' E 017°09'  
Track history (hours):
 
Tides and Currents Weather Stations Pressure Air Temp Water Temp Dewpoint Dewpoint Depression Visibility Wind Speed Wind Dir Waves Ship Positions

Helena

Last reported at 2014-Oct-21 10:28 UTC. Time now 2014-Oct-25 05:40 UTC.
Position N 57°20' E 017°44'.

Length 169 m; draft 6.6 m.

Type: Cargo ship. MMSI: 265145000.

Date/timePositionNaut miles runAvg speedWind from/ knotsBaromVisibWave heightAir tempDewpointWater temp
2014-Oct-21 10:28N 57°20' E 017°44'1516.1
2014-Oct-21 09:33N 57°06' E 017°34'10915.1
2014-Oct-21 02:20N 55°40' E 015°32'1316.5
2014-Oct-21 01:34N 55°34' E 015°13'1716.5
2014-Oct-21 00:34N 55°26' E 014°48'1616.0
2014-Oct-20 23:34N 55°14' E 014°28'1616.2
2014-Oct-20 22:34N 55°02' E 014°10'6516.3
2014-Oct-20 18:33N 54°36' E 012°26'1615.9
2014-Oct-20 17:34N 54°24' E 012°07'1616.1
2014-Oct-20 16:33N 54°17' E 011°42'1816.3
2014-Oct-20 15:28N 54°08' E 011°17'13 0.4
2014-Oct-19 07:33N 54°16' E 011°33'1313.2
2014-Oct-19 06:33N 54°23' E 011°53'1212.3
2014-Oct-19 05:33N 54°29' E 012°11'1711.9
2014-Oct-19 04:08N 54°42' E 012°29'7012.2
2014-Oct-18 22:24N 55°14' E 014°18'2512.5
2014-Oct-18 20:25N 55°32' E 014°49'1213.2
2014-Oct-18 19:30N 55°38' E 015°07'1313.3
2014-Oct-18 18:33N 55°44' E 015°27'1413.6
2014-Oct-18 17:30N 55°51' E 015°49'1313.6
2014-Oct-18 16:33N 55°57' E 016°09'  
2014-Oct-14 12:30N 57°16' E 017°39'11914.2
2014-Oct-14 04:07N 55°40' E 015°33'1014.8
2014-Oct-14 03:25N 55°36' E 015°16'1415.3
2014-Oct-14 02:31N 55°29' E 014°54'1515.3
2014-Oct-14 01:31N 55°20' E 014°33'1516.1
2014-Oct-14 00:34N 55°07' E 014°18'7015.9
2014-Oct-13 20:11N 54°37' E 012°29'1015.4
2014-Oct-13 19:33N 54°30' E 012°17'1211.7
2014-Oct-13 18:33N 54°24' E 011°60'1414.2
2014-Oct-13 17:33N 54°16' E 011°40'10 9.8
2014-Oct-13 16:32N 54°11' E 011°25'1210.4
2014-Oct-13 15:25N 54°05' E 011°08'5 0.2
2014-Oct-12 07:33N 54°09' E 011°14'1413.4
2014-Oct-12 06:30N 54°17' E 011°33'1313.5
2014-Oct-12 05:34N 54°24' E 011°51'1212.2
2014-Oct-12 04:33N 54°28' E 012°11'1712.3
2014-Oct-12 03:09N 54°42' E 012°28'7212.9
2014-Oct-11 21:32N 55°14' E 014°20'1413.3
2014-Oct-11 20:32N 55°25' E 014°35'1313.1
2014-Oct-11 19:33N 55°31' E 014°55'1313.1
2014-Oct-11 18:34N 55°38' E 015°14'1313.2
2014-Oct-11 17:33N 55°45' E 015°34'2613.2
2014-Oct-11 15:33N 55°59' E 016°15'4613.6
2014-Oct-11 12:10N 56°38' E 016°58'2314.2
2014-Oct-11 10:33N 56°60' E 017°09'  

Dump ship's entire track history